createdAt,value
2017-12-04T04:31:14.314Z,39.97
2017-12-04T04:33:41.889Z,41.53
2017-12-04T04:36:09.466Z,45.97
2017-12-04T04:38:37.098Z,44.28
2017-12-04T04:41:04.678Z,47.62
2017-12-04T04:43:32.257Z,50.10
2017-12-04T04:45:59.861Z,48.42
2017-12-04T04:48:27.470Z,51.92
2017-12-04T04:50:55.050Z,48.50
2017-12-04T04:53:22.625Z,40.22
2017-12-04T04:55:51.017Z,51.70
2017-12-04T04:58:18.593Z,49.72
2017-12-04T05:00:46.173Z,48.58
2017-12-04T05:03:13.791Z,46.83
2017-12-04T05:05:41.373Z,48.97
2017-12-04T05:08:08.958Z,42.15
2017-12-04T05:10:36.585Z,51.97
2017-12-04T05:13:04.157Z,48.38
2017-12-04T05:15:31.746Z,47.53
2017-12-04T05:17:59.365Z,37.40
2017-12-04T05:20:26.950Z,36.88
2017-12-04T05:22:54.526Z,41.60
2017-12-04T05:25:22.133Z,43.00
2017-12-04T05:27:49.714Z,41.90
2017-12-04T05:30:17.293Z,36.58
2017-12-04T05:32:44.917Z,40.55
2017-12-04T05:35:12.493Z,38.22
2017-12-04T05:37:40.101Z,43.05
2017-12-04T05:40:08.438Z,41.45
2017-12-04T05:42:36.018Z,42.75
2017-12-04T05:45:03.651Z,50.92
2017-12-04T05:47:31.225Z,42.88
2017-12-04T05:49:58.805Z,36.80
2017-12-04T05:52:27.177Z,44.30
2017-12-04T05:54:54.757Z,36.30
2017-12-04T05:57:23.095Z,40.40
2017-12-04T05:59:50.722Z,32.58
2017-12-04T06:02:18.301Z,31.15
2017-12-04T06:04:45.949Z,38.83
2017-12-04T06:07:13.566Z,38.08
2017-12-04T06:09:41.914Z,32.45
2017-12-04T06:12:09.493Z,37.72
2017-12-04T06:14:37.873Z,36.50
2017-12-04T06:17:06.212Z,31.23
2017-12-04T06:19:33.785Z,34.00
2017-12-04T06:22:01.381Z,36.55
2017-12-04T06:24:28.961Z,29.58
2017-12-04T06:26:56.567Z,31.40
2017-12-04T06:29:24.149Z,31.87
2017-12-04T06:31:52.489Z,32.72
2017-12-04T06:34:20.273Z,33.45
2017-12-04T06:36:47.854Z,33.63
2017-12-04T06:39:15.429Z,35.50
2017-12-04T06:41:43.061Z,35.72
2017-12-04T06:44:11.406Z,37.15
2017-12-04T06:46:38.985Z,35.35
2017-12-04T06:49:06.610Z,38.83
2017-12-04T06:51:34.180Z,47.80
2017-12-04T06:54:01.758Z,37.10
2017-12-04T06:56:30.137Z,36.20
2017-12-04T06:58:59.217Z,42.67
2017-12-04T07:01:26.801Z,48.03
2017-12-04T07:03:55.197Z,29.30
2017-12-04T07:06:22.777Z,39.45
2017-12-04T07:08:50.360Z,31.73
2017-12-04T07:11:17.985Z,33.88
2017-12-04T07:13:45.566Z,35.50
2017-12-04T07:16:13.142Z,35.55
2017-12-04T07:18:40.769Z,34.97
2017-12-04T07:21:08.386Z,40.90
2017-12-04T07:23:35.961Z,32.03
2017-12-04T07:26:04.337Z,29.48
2017-12-04T07:28:32.681Z,39.47
2017-12-04T07:31:00.261Z,31.52
2017-12-04T07:33:28.632Z,31.10
2017-12-04T07:35:57.074Z,39.60
2017-12-04T07:38:24.648Z,32.05
2017-12-04T07:40:52.277Z,37.38
2017-12-04T07:43:19.857Z,39.97
2017-12-04T07:45:47.437Z,34.80
2017-12-04T07:48:15.070Z,34.53
2017-12-04T07:50:42.645Z,28.70
2017-12-04T07:53:10.989Z,36.58
2017-12-04T07:55:38.617Z,37.72
2017-12-04T07:58:06.989Z,29.65
2017-12-04T08:00:35.333Z,33.80
2017-12-04T08:03:02.962Z,41.65
2017-12-04T08:05:30.541Z,30.12
2017-12-04T08:07:58.116Z,26.48
2017-12-04T08:10:26.514Z,34.17
2017-12-04T08:12:54.870Z,23.52
2017-12-04T08:15:23.965Z,38.30
2017-12-04T08:17:51.581Z,28.58
2017-12-04T08:20:19.161Z,29.90
2017-12-04T08:22:46.737Z,30.60
2017-12-04T08:25:14.344Z,30.10
2017-12-04T08:27:41.923Z,32.95
2017-12-04T08:30:09.549Z,33.83
2017-12-04T08:32:37.892Z,38.20
2017-12-04T08:35:05.465Z,32.47
2017-12-04T08:37:33.089Z,34.90
2017-12-04T08:40:00.669Z,34.60
2017-12-04T08:42:29.759Z,34.15
2017-12-04T08:44:57.413Z,38.40
2017-12-04T08:47:24.993Z,36.03
2017-12-04T08:49:52.577Z,35.83
2017-12-04T08:52:20.954Z,40.55
2017-12-04T08:54:49.295Z,62.83
2017-12-04T08:57:16.869Z,40.75
2017-12-04T08:59:44.469Z,38.10
2017-12-04T09:02:12.046Z,37.67
2017-12-04T09:04:39.825Z,39.58
2017-12-04T09:07:08.041Z,36.05
2017-12-04T09:09:36.380Z,48.78
2017-12-04T09:12:03.964Z,44.97
2017-12-04T09:14:32.329Z,45.12
2017-12-04T09:16:59.901Z,40.65
2017-12-04T09:19:28.286Z,36.78
2017-12-04T09:21:56.630Z,37.22
2017-12-04T09:24:24.209Z,34.72
2017-12-04T09:26:52.597Z,38.30
2017-12-04T09:29:20.938Z,28.08
2017-12-04T09:31:48.518Z,41.05
2017-12-04T09:34:16.148Z,44.65
2017-12-04T09:36:43.725Z,34.58
2017-12-04T09:39:11.306Z,32.20
2017-12-04T09:41:39.717Z,29.52
2017-12-04T09:44:07.296Z,27.55
2017-12-04T09:46:34.901Z,22.40
2017-12-04T09:49:03.302Z,23.45
2017-12-04T09:51:30.884Z,19.48
2017-12-04T09:53:58.457Z,25.60
2017-12-04T09:56:26.082Z,26.98
2017-12-04T09:58:53.666Z,26.30
2017-12-04T10:01:21.294Z,26.85
2017-12-04T10:03:48.875Z,27.80
2017-12-04T10:06:16.459Z,24.63
2017-12-04T10:08:44.081Z,25.60
2017-12-04T10:11:11.661Z,25.23
2017-12-04T10:13:39.249Z,23.23
2017-12-04T10:16:06.845Z,30.05
2017-12-04T10:18:34.426Z,26.35
2017-12-04T10:21:02.029Z,36.83
2017-12-04T10:23:29.604Z,32.35
2017-12-04T10:25:57.946Z,39.25
2017-12-04T10:28:25.565Z,36.72
2017-12-04T10:30:53.145Z,36.28
2017-12-04T10:33:20.722Z,32.28
2017-12-04T10:35:48.325Z,24.30
2017-12-04T10:38:16.669Z,39.95
2017-12-04T10:40:44.245Z,25.88
2017-12-04T10:43:12.626Z,24.15
2017-12-04T10:45:40.974Z,29.92
2017-12-04T10:48:08.554Z,37.33
2017-12-04T10:50:36.969Z,50.42
2017-12-04T10:53:04.545Z,41.40
2017-12-04T10:55:32.128Z,37.60
2017-12-04T10:57:59.757Z,33.55
2017-12-04T11:00:27.342Z,29.63
2017-12-04T11:02:54.921Z,37.05
2017-12-04T11:05:22.565Z,29.70
2017-12-04T11:07:50.138Z,26.92
2017-12-04T11:10:17.722Z,32.42
2017-12-04T11:12:46.097Z,29.27
2017-12-04T11:15:14.442Z,30.85
2017-12-04T11:17:42.024Z,22.87
2017-12-04T11:20:10.410Z,24.75
2017-12-04T11:22:38.748Z,24.92
2017-12-04T11:25:06.321Z,28.08
2017-12-04T11:27:33.920Z,37.67
2017-12-04T11:30:01.506Z,30.83
2017-12-04T11:32:29.087Z,25.33
2017-12-04T11:34:56.875Z,31.45
2017-12-04T11:37:25.213Z,30.12
2017-12-04T11:39:52.862Z,30.92
2017-12-04T11:42:20.473Z,21.35
2017-12-04T11:44:48.901Z,22.37
2017-12-04T11:47:16.477Z,22.20
2017-12-04T11:49:44.093Z,21.25
2017-12-04T11:52:11.670Z,21.40
2017-12-04T11:54:39.249Z,23.58
2017-12-04T11:57:06.857Z,25.52
2017-12-04T11:59:35.203Z,24.77
2017-12-04T12:02:02.786Z,27.10
2017-12-04T12:04:31.169Z,21.62
2017-12-04T12:06:58.745Z,17.90
2017-12-04T12:09:26.318Z,15.60
2017-12-04T12:11:53.940Z,22.73
2017-12-04T12:14:22.281Z,26.83
2017-12-04T12:16:49.861Z,24.58
2017-12-04T12:19:17.486Z,21.98
2017-12-04T12:21:45.061Z,23.10
2017-12-04T12:24:12.640Z,25.35
2017-12-04T12:26:41.028Z,19.42
2017-12-04T12:29:09.370Z,21.73
2017-12-04T12:31:36.950Z,24.75
2017-12-04T12:34:04.558Z,24.65
2017-12-04T12:36:32.129Z,25.42
2017-12-04T12:38:59.709Z,35.63
2017-12-04T12:41:27.498Z,32.85
2017-12-04T12:43:55.846Z,24.05
2017-12-04T12:46:23.426Z,34.58
2017-12-04T12:48:51.797Z,27.70
2017-12-04T12:51:19.373Z,26.73
2017-12-04T12:53:47.717Z,26.40
2017-12-04T12:56:15.351Z,20.95
2017-12-04T12:58:42.934Z,27.30
2017-12-04T13:01:10.553Z,16.83
2017-12-04T13:03:38.129Z,15.80
2017-12-04T13:06:05.705Z,28.45
2017-12-04T13:08:33.317Z,12.60
2017-12-04T13:11:00.889Z,15.07
2017-12-04T13:13:28.466Z,17.42
2017-12-04T13:15:56.076Z,18.42
2017-12-04T13:18:24.413Z,19.77
2017-12-04T13:20:51.989Z,16.30
2017-12-04T13:23:19.588Z,26.42
2017-12-04T13:25:47.161Z,15.65
2017-12-04T13:28:14.737Z,16.87
2017-12-04T13:30:42.334Z,19.83
2017-12-04T13:33:21.833Z,13.25
2017-12-04T13:36:01.279Z,18.23
2017-12-04T13:38:28.857Z,16.08
2017-12-04T13:40:56.434Z,18.90
2017-12-04T13:43:24.809Z,17.92
2017-12-04T13:45:53.150Z,12.43
2017-12-04T13:48:20.729Z,22.55
2017-12-04T13:50:48.345Z,14.95
2017-12-04T13:53:15.913Z,12.90
2017-12-04T13:55:43.485Z,18.52
2017-12-04T13:58:11.115Z,18.23
2017-12-04T14:00:38.698Z,15.02
2017-12-04T14:03:06.268Z,18.08
2017-12-04T14:05:33.897Z,12.07
2017-12-04T14:08:01.473Z,12.95
2017-12-04T14:10:29.040Z,13.70
2017-12-04T14:12:56.666Z,12.77
2017-12-04T14:15:24.242Z,13.93
2017-12-04T14:17:51.821Z,17.37
2017-12-04T14:20:19.420Z,15.23
2017-12-04T14:22:47.761Z,15.57
2017-12-04T14:25:15.338Z,17.60
2017-12-04T14:27:42.957Z,15.15
2017-12-04T14:30:10.530Z,14.25
2017-12-04T14:32:38.105Z,19.65
2017-12-04T14:35:05.697Z,14.95
2017-12-04T14:37:33.273Z,17.40
2017-12-04T14:40:00.906Z,19.98
2017-12-04T14:42:29.250Z,18.87
2017-12-04T14:44:56.885Z,16.25
2017-12-04T14:47:24.493Z,26.08
2017-12-04T14:49:52.838Z,24.92
2017-12-04T14:52:20.414Z,13.45
2017-12-04T14:54:48.034Z,10.93
2017-12-04T14:57:15.605Z,13.82
2017-12-04T14:59:43.181Z,19.08
2017-12-04T15:02:10.783Z,11.88
2017-12-04T15:04:38.357Z,10.73
2017-12-04T15:07:05.926Z,8.77
2017-12-04T15:09:33.534Z,9.85
2017-12-04T15:12:01.110Z,6.95
2017-12-04T15:14:29.454Z,10.10
2017-12-04T15:16:57.854Z,19.15
2017-12-04T15:19:26.193Z,12.57
2017-12-04T15:21:53.770Z,11.77
2017-12-04T15:24:22.263Z,17.90
2017-12-04T15:26:50.616Z,11.30
2017-12-04T15:29:18.190Z,13.43
2017-12-04T15:31:45.826Z,15.23
2017-12-04T15:34:13.408Z,20.85
2017-12-04T15:36:40.977Z,21.42
2017-12-04T15:39:09.345Z,26.62
2017-12-04T15:41:36.922Z,31.62
2017-12-04T15:44:05.302Z,27.87
2017-12-04T15:46:33.646Z,43.03
2017-12-04T15:49:01.231Z,29.92
2017-12-04T15:51:29.605Z,18.17
2017-12-04T15:53:57.941Z,18.02
2017-12-04T15:56:25.522Z,19.12
2017-12-04T15:58:53.158Z,22.42
2017-12-04T16:01:20.729Z,20.98
2017-12-04T16:03:48.309Z,12.77
2017-12-04T16:06:15.933Z,15.15
2017-12-04T16:08:43.513Z,13.32
2017-12-04T16:11:12.599Z,17.20
2017-12-04T16:13:40.221Z,20.02
2017-12-04T16:16:07.808Z,22.30
2017-12-04T16:18:35.391Z,35.13
2017-12-04T16:21:03.449Z,48.28
2017-12-04T16:23:31.030Z,32.65
2017-12-04T16:25:59.373Z,33.28
2017-12-04T16:28:27.093Z,27.52
2017-12-04T16:30:54.665Z,14.90
2017-12-04T16:33:22.241Z,11.85
2017-12-04T16:35:49.844Z,18.58
2017-12-04T16:38:17.417Z,19.00
2017-12-04T16:40:45.765Z,22.02
2017-12-04T16:43:13.391Z,17.90
2017-12-04T16:45:40.961Z,19.08
2017-12-04T16:48:08.538Z,23.90
2017-12-04T16:50:36.938Z,19.70
2017-12-04T16:53:05.282Z,20.00
2017-12-04T16:55:32.857Z,30.37
2017-12-04T16:58:00.474Z,18.30
2017-12-04T17:00:28.062Z,25.65
2017-12-04T17:02:55.646Z,34.15
2017-12-04T17:05:24.017Z,37.97
2017-12-04T17:07:51.605Z,46.45
2017-12-04T17:10:19.237Z,47.45
2017-12-04T17:12:46.822Z,41.47
2017-12-04T17:15:14.397Z,34.33
2017-12-04T17:17:42.002Z,26.87
2017-12-04T17:20:09.638Z,28.38
2017-12-04T17:22:37.262Z,24.58
2017-12-04T17:25:04.876Z,32.35
2017-12-04T17:27:32.450Z,22.77
2017-12-04T17:30:00.028Z,23.52
2017-12-04T17:32:28.417Z,37.33
2017-12-04T17:34:55.989Z,44.20
2017-12-04T17:37:23.569Z,62.30
2017-12-04T17:39:51.174Z,44.58
2017-12-04T17:42:19.517Z,52.47
2017-12-04T17:44:47.097Z,34.53
2017-12-04T17:47:16.214Z,40.38
2017-12-04T17:49:44.557Z,34.33
2017-12-04T17:52:12.138Z,27.48
2017-12-04T17:54:40.497Z,20.37
2017-12-04T17:57:08.070Z,20.55
2017-12-04T17:59:36.435Z,37.22
2017-12-04T18:02:04.018Z,30.27
2017-12-04T18:04:32.358Z,30.65
2017-12-04T18:06:59.976Z,33.83
2017-12-04T18:09:27.557Z,21.10
2017-12-04T18:11:55.129Z,30.62
2017-12-04T18:14:22.758Z,23.45
2017-12-04T18:16:50.333Z,21.08
2017-12-04T18:19:17.916Z,29.25
2017-12-04T18:21:45.657Z,27.27
2017-12-04T18:24:13.237Z,39.85
2017-12-04T18:26:40.832Z,28.38
2017-12-04T18:29:09.196Z,27.25
2017-12-04T18:31:37.629Z,34.78
2017-12-04T18:34:05.204Z,24.65
2017-12-04T18:36:32.804Z,28.00
2017-12-04T18:39:00.381Z,26.50
2017-12-04T18:41:27.954Z,27.95
2017-12-04T18:43:55.578Z,25.25
2017-12-04T18:46:23.917Z,31.52
2017-12-04T18:48:51.489Z,24.30
2017-12-04T18:51:19.873Z,33.40
2017-12-04T18:53:47.453Z,25.80
2017-12-04T18:56:15.802Z,39.28
2017-12-04T18:58:43.405Z,37.53
2017-12-04T19:01:10.983Z,32.00
2017-12-04T19:03:38.564Z,41.58
2017-12-04T19:06:06.171Z,26.55
2017-12-04T19:08:33.863Z,29.30
2017-12-04T19:11:01.498Z,29.45
2017-12-04T19:13:29.079Z,33.47
2017-12-04T19:15:56.658Z,41.40
2017-12-04T19:18:24.271Z,32.33
2017-12-04T19:20:51.845Z,27.10
2017-12-04T19:23:19.425Z,25.02
2017-12-04T19:25:47.049Z,36.80
2017-12-04T19:28:14.630Z,26.77
2017-12-04T19:30:42.205Z,29.23
2017-12-04T19:33:09.814Z,24.52
2017-12-04T19:35:38.149Z,23.40
2017-12-04T19:38:05.787Z,25.00
2017-12-04T19:40:33.395Z,32.35
2017-12-04T19:43:01.740Z,48.63
2017-12-04T19:45:29.318Z,29.85
2017-12-04T19:47:56.990Z,40.00
2017-12-04T19:50:25.334Z,35.97
2017-12-04T19:52:52.910Z,23.83
2017-12-04T19:55:21.307Z,39.75
2017-12-04T19:57:49.654Z,24.35
2017-12-04T20:00:20.574Z,47.78
2017-12-04T20:02:48.182Z,29.35
2017-12-04T20:05:16.526Z,31.52
2017-12-04T20:07:44.157Z,19.48
2017-12-04T20:10:11.731Z,32.35
2017-12-04T20:12:39.314Z,18.17
2017-12-04T20:15:06.910Z,20.45
2017-12-04T20:17:34.485Z,14.90
2017-12-04T20:20:02.090Z,19.20
2017-12-04T20:22:29.674Z,19.67
2017-12-04T20:24:58.025Z,20.45
2017-12-04T20:27:25.654Z,23.42
2017-12-04T20:29:53.286Z,23.98
2017-12-04T20:32:20.867Z,28.50
2017-12-04T20:34:48.486Z,23.73
2017-12-04T20:37:16.828Z,15.40
2017-12-04T20:39:44.403Z,16.95
2017-12-04T20:42:12.134Z,27.60
2017-12-04T20:44:39.709Z,22.13
2017-12-04T20:47:07.285Z,24.17
2017-12-04T20:49:34.904Z,17.45
2017-12-04T20:52:02.477Z,21.05
2017-12-04T20:54:30.053Z,22.75
2017-12-04T20:56:57.665Z,18.00
2017-12-04T20:59:25.242Z,19.75
2017-12-04T21:01:52.830Z,17.08
2017-12-04T21:04:20.486Z,22.83
2017-12-04T21:06:48.266Z,19.87
2017-12-04T21:09:28.723Z,19.58
2017-12-04T21:11:56.300Z,44.25
2017-12-04T21:14:36.723Z,30.58
2017-12-04T21:17:16.165Z,23.00
2017-12-04T21:19:43.765Z,17.95
2017-12-04T21:22:11.337Z,25.05
2017-12-04T21:24:38.913Z,21.20
2017-12-04T21:27:06.526Z,14.35
2017-12-04T21:29:34.878Z,13.40
2017-12-04T21:32:02.462Z,12.90
2017-12-04T21:34:30.877Z,13.48
2017-12-04T21:36:58.458Z,25.58
2017-12-04T21:39:26.037Z,16.25
2017-12-04T21:41:53.657Z,20.17
2017-12-04T21:44:21.233Z,20.30
2017-12-04T21:46:48.984Z,18.48
2017-12-04T21:49:16.605Z,19.30
2017-12-04T21:51:44.949Z,15.40
2017-12-04T21:54:12.523Z,14.13
2017-12-04T21:56:40.898Z,13.52
2017-12-04T21:59:08.478Z,14.85
2017-12-04T22:01:36.089Z,23.75
2017-12-04T22:04:03.667Z,19.30
2017-12-04T22:06:31.245Z,15.00
2017-12-04T22:08:59.630Z,17.62
2017-12-04T22:11:27.977Z,22.45
2017-12-04T22:13:55.562Z,21.37
2017-12-04T22:16:23.949Z,18.08
2017-12-04T22:18:51.525Z,17.58
2017-12-04T22:21:19.097Z,14.50
2017-12-04T22:23:46.705Z,16.25
2017-12-04T22:26:15.045Z,19.30
2017-12-04T22:28:42.617Z,14.77
2017-12-04T22:31:11.737Z,13.57
2017-12-04T22:33:40.084Z,23.10
2017-12-04T22:36:09.174Z,20.65
2017-12-04T22:38:36.780Z,16.12
2017-12-04T22:41:04.353Z,19.00
2017-12-04T22:46:12.530Z,17.25
2017-12-04T22:48:40.105Z,18.85
2017-12-04T22:51:08.441Z,34.38
2017-12-04T22:53:36.053Z,27.67
2017-12-04T22:56:04.393Z,20.70
2017-12-04T22:58:31.966Z,24.52
2017-12-04T23:00:59.585Z,21.98
2017-12-04T23:03:27.153Z,29.50
2017-12-04T23:05:54.727Z,28.00
2017-12-04T23:08:22.346Z,29.42
2017-12-04T23:10:49.925Z,19.30
2017-12-04T23:13:17.501Z,23.95
2017-12-04T23:15:45.137Z,20.67
2017-12-04T23:18:12.709Z,23.40
2017-12-04T23:20:40.286Z,25.48
2017-12-04T23:23:07.889Z,24.75
2017-12-04T23:25:35.473Z,22.25
2017-12-04T23:28:03.054Z,24.30
